createdAt,value
2023-05-09T00:01:41.982Z,32.60
2023-05-09T00:04:13.587Z,29.50
2023-05-09T00:06:45.316Z,29.50
2023-05-09T00:09:17.001Z,23.70
2023-05-09T00:11:49.485Z,26.00
2023-05-09T00:14:21.430Z,23.50
2023-05-09T00:16:54.057Z,26.30
2023-05-09T00:19:25.675Z,26.60
2023-05-09T00:21:57.230Z,26.40
2023-05-09T00:24:28.762Z,29.60
2023-05-09T00:27:00.317Z,25.80
2023-05-09T00:29:31.896Z,25.50
2023-05-09T00:32:03.444Z,28.90
2023-05-09T00:34:34.947Z,25.00
2023-05-09T00:37:07.393Z,24.50
2023-05-09T00:39:39.189Z,20.20
2023-05-09T00:42:12.056Z,19.80
2023-05-09T00:44:44.585Z,19.60
2023-05-09T00:47:16.183Z,20.70
2023-05-09T00:49:47.956Z,25.30
2023-05-09T00:52:23.484Z,21.50
2023-05-09T00:54:56.444Z,21.90
2023-05-09T00:57:28.157Z,21.70
2023-05-09T00:59:59.773Z,20.10
2023-05-09T01:02:31.992Z,23.80
2023-05-09T01:05:03.726Z,23.80
2023-05-09T01:07:39.702Z,23.20
2023-05-09T01:10:17.958Z,23.80
2023-05-09T01:12:56.462Z,22.00
2023-05-09T01:15:35.867Z,23.90
2023-05-09T01:18:13.338Z,24.80
2023-05-09T01:20:49.112Z,20.10
2023-05-09T01:23:48.551Z,19.60
2023-05-09T01:26:27.161Z,17.80
2023-05-09T01:29:25.262Z,20.70
2023-05-09T01:31:59.877Z,18.60
2023-05-09T01:34:34.035Z,21.80
2023-05-09T01:37:08.697Z,21.80
2023-05-09T01:39:43.901Z,21.50
2023-05-09T01:42:18.941Z,21.10
2023-05-09T01:44:51.381Z,19.60
2023-05-09T01:47:24.899Z,28.40
2023-05-09T01:49:57.901Z,23.90
2023-05-09T01:52:31.142Z,21.80
2023-05-09T01:55:06.526Z,19.90
2023-05-09T01:57:39.297Z,21.40
2023-05-09T02:00:14.619Z,20.40
2023-05-09T02:02:47.598Z,20.40
2023-05-09T02:05:21.065Z,19.00
2023-05-09T02:07:53.755Z,21.80
2023-05-09T02:10:28.114Z,24.10
2023-05-09T02:12:59.870Z,19.50
2023-05-09T02:15:33.495Z,21.30
2023-05-09T02:18:06.105Z,21.10
2023-05-09T02:20:37.576Z,20.80
2023-05-09T02:23:09.693Z,20.10
2023-05-09T02:25:42.230Z,22.00
2023-05-09T02:28:14.969Z,21.50
2023-05-09T02:30:49.025Z,21.90
2023-05-09T02:33:21.549Z,25.80
2023-05-09T02:35:54.734Z,23.30
2023-05-09T02:38:27.502Z,23.40
2023-05-09T02:40:59.425Z,22.10
2023-05-09T02:43:31.117Z,20.90
2023-05-09T02:46:02.541Z,21.80
2023-05-09T02:48:34.284Z,24.20
2023-05-09T02:51:06.133Z,23.60
2023-05-09T02:53:37.780Z,41.10
2023-05-09T02:56:11.182Z,30.10
2023-05-09T02:58:42.577Z,56.30
2023-05-09T03:01:14.027Z,51.80
2023-05-09T03:03:46.351Z,27.20
2023-05-09T03:06:18.794Z,25.00
2023-05-09T03:08:50.341Z,24.60
2023-05-09T03:11:22.293Z,22.90
2023-05-09T03:13:53.783Z,22.70
2023-05-09T03:16:25.355Z,19.20
2023-05-09T03:18:56.884Z,26.00
2023-05-09T03:21:29.831Z,21.70
2023-05-09T03:24:01.438Z,23.10
2023-05-09T03:26:33.074Z,18.20
2023-05-09T03:29:04.647Z,23.70
2023-05-09T03:31:36.385Z,20.90
2023-05-09T03:34:13.276Z,24.10
2023-05-09T03:36:45.210Z,25.80
2023-05-09T03:39:16.835Z,23.10
2023-05-09T03:41:49.125Z,19.90
2023-05-09T03:44:21.231Z,21.30
2023-05-09T03:46:53.460Z,18.80
2023-05-09T03:49:28.862Z,18.40
2023-05-09T03:52:05.241Z,17.80
2023-05-09T03:54:40.433Z,16.70
2023-05-09T03:57:11.952Z,16.00
2023-05-09T03:59:43.485Z,16.30
2023-05-09T04:02:15.425Z,18.00
2023-05-09T04:04:47.632Z,16.20
2023-05-09T04:07:19.451Z,18.30
2023-05-09T04:09:51.212Z,16.70
2023-05-09T04:12:22.644Z,18.90
2023-05-09T04:14:54.276Z,15.70
2023-05-09T04:17:26.230Z,16.10
2023-05-09T04:19:57.909Z,20.00
2023-05-09T04:22:29.764Z,17.30
2023-05-09T04:25:05.726Z,17.30
2023-05-09T04:27:37.630Z,18.40
2023-05-09T04:30:11.619Z,15.60
2023-05-09T04:32:46.462Z,18.20
2023-05-09T04:35:20.698Z,20.40
2023-05-09T04:40:22.974Z,16.00
2023-05-09T04:42:57.610Z,20.00
2023-05-09T04:45:29.462Z,18.30
2023-05-09T04:48:01.527Z,15.10
2023-05-09T04:50:33.566Z,17.10
2023-05-09T04:53:05.305Z,23.00
2023-05-09T04:55:36.991Z,19.10
2023-05-09T04:58:09.556Z,21.10
2023-05-09T05:00:42.771Z,16.90
2023-05-09T05:03:14.308Z,13.90
2023-05-09T05:05:45.975Z,18.70
2023-05-09T05:08:17.537Z,14.50
2023-05-09T05:10:49.997Z,14.10
2023-05-09T05:13:22.201Z,15.70
2023-05-09T05:15:54.187Z,19.50
2023-05-09T05:18:25.957Z,17.50
2023-05-09T05:20:57.862Z,18.10
2023-05-09T05:23:29.556Z,16.40
2023-05-09T05:26:01.369Z,16.10
2023-05-09T05:28:33.615Z,12.60
2023-05-09T05:31:05.325Z,12.90
2023-05-09T05:33:37.160Z,12.60
2023-05-09T05:36:11.086Z,14.40
2023-05-09T05:38:43.056Z,14.70
2023-05-09T05:41:16.032Z,12.70
2023-05-09T05:43:47.731Z,12.40
2023-05-09T05:46:19.497Z,14.60
2023-05-09T05:48:51.499Z,14.00
2023-05-09T05:51:23.622Z,10.60
2023-05-09T05:53:55.400Z,12.10
2023-05-09T05:56:27.019Z,9.80
2023-05-09T05:58:58.504Z,9.90
2023-05-09T06:01:30.649Z,12.20
2023-05-09T06:04:02.369Z,13.10
2023-05-09T06:06:34.625Z,11.30
2023-05-09T06:09:06.504Z,16.50
2023-05-09T06:11:40.174Z,13.60
2023-05-09T06:14:12.586Z,12.20
2023-05-09T06:16:44.504Z,12.90
2023-05-09T06:19:16.218Z,19.10
2023-05-09T06:21:48.368Z,11.70
2023-05-09T06:24:31.661Z,12.30
2023-05-09T06:27:07.710Z,10.60
2023-05-09T06:29:41.026Z,8.00
2023-05-09T06:32:12.586Z,10.60
2023-05-09T06:34:44.338Z,8.00
2023-05-09T06:37:16.052Z,7.90
2023-05-09T06:39:47.957Z,10.80
2023-05-09T06:42:19.501Z,7.90
2023-05-09T06:44:51.104Z,6.40
2023-05-09T06:47:22.800Z,7.70
2023-05-09T06:49:55.142Z,8.30
2023-05-09T06:52:26.668Z,4.50
2023-05-09T06:54:58.219Z,6.20
2023-05-09T06:57:29.987Z,12.80
2023-05-09T07:00:01.673Z,8.80
2023-05-09T07:02:36.413Z,6.70
2023-05-09T07:05:09.082Z,9.80
2023-05-09T07:07:41.105Z,5.30
2023-05-09T07:10:14.961Z,5.40
2023-05-09T07:12:46.654Z,7.10
2023-05-09T07:15:28.651Z,5.90
2023-05-09T07:18:09.206Z,5.70
2023-05-09T07:20:43.476Z,5.80
2023-05-09T07:23:15.419Z,4.70
2023-05-09T07:25:50.009Z,5.50
2023-05-09T07:28:22.485Z,7.20
2023-05-09T07:30:54.567Z,5.40
2023-05-09T07:33:27.360Z,3.90
2023-05-09T07:36:01.911Z,7.20
2023-05-09T07:41:04.085Z,4.20
2023-05-09T07:43:37.093Z,7.00
2023-05-09T07:46:09.216Z,5.70
2023-05-09T07:48:41.087Z,5.30
2023-05-09T07:51:13.400Z,7.70
2023-05-09T07:53:46.151Z,7.40
2023-05-09T07:56:18.147Z,10.00
2023-05-09T07:58:50.195Z,8.30
2023-05-09T08:01:22.248Z,6.80
2023-05-09T08:03:54.772Z,7.30
2023-05-09T08:06:27.023Z,5.20
2023-05-09T08:08:59.107Z,7.60
2023-05-09T08:11:31.156Z,4.20
2023-05-09T08:14:04.158Z,5.30
2023-05-09T08:16:36.367Z,7.70
2023-05-09T08:19:08.576Z,6.00
2023-05-09T08:21:40.715Z,4.10
2023-05-09T08:24:12.932Z,5.60
2023-05-09T08:27:13.947Z,3.80
2023-05-09T08:29:46.791Z,5.10
2023-05-09T08:32:20.315Z,5.50
2023-05-09T08:34:52.793Z,6.70
2023-05-09T08:37:27.886Z,4.50
2023-05-09T08:39:59.902Z,4.70
2023-05-09T08:42:34.319Z,8.30
2023-05-09T08:45:11.126Z,6.40
2023-05-09T08:47:43.357Z,7.30
2023-05-09T08:50:17.791Z,9.60
2023-05-09T08:52:50.395Z,5.10
2023-05-09T08:55:22.915Z,4.10
2023-05-09T08:57:55.700Z,8.10
2023-05-09T09:00:29.291Z,4.30
2023-05-09T09:03:02.741Z,5.60
2023-05-09T09:05:41.750Z,4.50
2023-05-09T09:08:14.495Z,5.60
2023-05-09T09:10:47.783Z,6.70
2023-05-09T09:13:20.232Z,5.00
2023-05-09T09:15:55.448Z,7.90
2023-05-09T09:18:31.421Z,3.80
2023-05-09T09:21:07.979Z,6.10
2023-05-09T09:23:41.835Z,15.30
2023-05-09T09:26:14.596Z,5.40
2023-05-09T09:29:00.035Z,5.00
2023-05-09T09:31:38.554Z,7.30
2023-05-09T09:34:10.076Z,6.20
2023-05-09T09:36:41.891Z,4.80
2023-05-09T09:39:19.446Z,8.30
2023-05-09T09:41:56.826Z,5.30
2023-05-09T09:44:29.707Z,10.80
2023-05-09T09:47:01.919Z,5.60
2023-05-09T09:49:34.195Z,7.00
2023-05-09T09:52:05.896Z,5.70
2023-05-09T09:54:37.654Z,5.60
2023-05-09T09:57:09.433Z,3.80
2023-05-09T09:59:41.235Z,3.20
2023-05-09T10:02:12.941Z,9.20
2023-05-09T10:04:45.630Z,5.40
2023-05-09T10:07:20.908Z,3.60
2023-05-09T10:09:52.816Z,4.30
2023-05-09T10:12:24.648Z,5.20
2023-05-09T10:14:56.842Z,4.20
2023-05-09T10:17:29.208Z,4.40
2023-05-09T10:20:01.599Z,4.90
2023-05-09T10:22:34.123Z,7.70
2023-05-09T10:25:14.187Z,7.20
2023-05-09T10:27:49.076Z,6.20
2023-05-09T10:30:34.072Z,3.50
2023-05-09T10:33:11.599Z,8.00
2023-05-09T10:35:49.127Z,3.20
2023-05-09T10:38:21.481Z,6.50
2023-05-09T10:40:55.113Z,4.30
2023-05-09T10:43:27.778Z,5.50
2023-05-09T10:46:04.433Z,4.10
2023-05-09T10:48:42.649Z,7.20
2023-05-09T10:51:17.103Z,6.60
2023-05-09T10:53:53.116Z,5.00
2023-05-09T10:56:33.834Z,3.50
2023-05-09T10:59:05.821Z,9.80
2023-05-09T11:01:40.614Z,5.50
2023-05-09T11:04:18.078Z,5.00
2023-05-09T11:06:52.126Z,4.80
2023-05-09T11:09:33.517Z,7.80
2023-05-09T11:12:15.567Z,4.30
2023-05-09T11:14:49.174Z,28.20
2023-05-09T11:17:32.487Z,6.00
2023-05-09T11:20:12.149Z,4.50
2023-05-09T11:22:47.131Z,8.90
2023-05-09T11:25:19.883Z,4.10
2023-05-09T11:28:02.521Z,4.30
2023-05-09T11:30:46.274Z,4.20
2023-05-09T11:33:28.872Z,5.20
2023-05-09T11:36:25.835Z,4.90
2023-05-09T11:39:08.714Z,5.50
2023-05-09T11:41:50.929Z,4.80
2023-05-09T11:44:23.938Z,6.00
2023-05-09T11:46:55.590Z,5.40
2023-05-09T11:49:30.267Z,3.70
2023-05-09T11:52:06.758Z,5.10
2023-05-09T11:54:39.880Z,5.70
2023-05-09T11:57:12.069Z,5.80
2023-05-09T11:59:44.524Z,4.70
2023-05-09T12:02:17.283Z,3.00
2023-05-09T12:04:50.544Z,4.80
2023-05-09T12:07:22.202Z,5.40
2023-05-09T12:10:21.938Z,5.30
2023-05-09T12:13:16.362Z,6.00
2023-05-09T12:15:48.263Z,6.50
2023-05-09T12:18:31.974Z,4.70
2023-05-09T12:21:04.199Z,7.70
2023-05-09T12:23:39.545Z,4.20
2023-05-09T12:26:13.074Z,4.10
2023-05-09T12:28:47.149Z,4.80
2023-05-09T12:31:20.504Z,4.10
2023-05-09T12:33:53.929Z,3.60
2023-05-09T12:36:26.680Z,4.10
2023-05-09T12:38:59.111Z,4.20
2023-05-09T12:41:39.212Z,8.10
2023-05-09T12:47:04.722Z,4.00
2023-05-09T12:49:38.989Z,3.90
2023-05-09T12:52:22.050Z,3.70
2023-05-09T12:54:55.578Z,12.60
2023-05-09T12:57:31.580Z,4.00
2023-05-09T13:00:06.969Z,4.80
2023-05-09T13:02:43.047Z,5.80
2023-05-09T13:05:19.482Z,4.60
2023-05-09T13:07:52.989Z,8.90
2023-05-09T13:10:30.204Z,5.30
2023-05-09T13:13:02.852Z,8.70
2023-05-09T13:15:34.641Z,4.50
2023-05-09T13:18:06.939Z,3.50
2023-05-09T13:20:39.355Z,6.00
2023-05-09T13:23:11.186Z,4.20
2023-05-09T13:25:42.758Z,3.80
2023-05-09T13:31:30.999Z,5.60
2023-05-09T13:38:04.924Z,8.80
2023-05-09T13:40:45.403Z,3.80
2023-05-09T13:43:17.265Z,4.70
2023-05-09T13:45:49.910Z,4.30
2023-05-09T13:48:53.532Z,3.40
2023-05-09T13:51:35.417Z,9.20
2023-05-09T13:54:16.181Z,8.80
2023-05-09T13:56:53.713Z,4.50
2023-05-09T13:59:30.423Z,4.10
2023-05-09T14:02:17.548Z,4.30
2023-05-09T14:05:12.078Z,4.10
2023-05-09T14:07:43.934Z,3.50
2023-05-09T14:10:19.056Z,5.60
2023-05-09T14:12:53.468Z,6.10
2023-05-09T14:15:36.225Z,3.70
2023-05-09T14:18:08.620Z,4.20
2023-05-09T14:20:41.177Z,4.80
2023-05-09T14:23:14.486Z,7.20
2023-05-09T14:26:25.976Z,3.70
2023-05-09T14:29:20.332Z,5.50
2023-05-09T14:31:51.879Z,5.20
2023-05-09T14:35:28.453Z,3.80
2023-05-09T14:42:47.824Z,4.80
2023-05-09T14:45:31.914Z,3.10
2023-05-09T14:48:17.725Z,3.20
2023-05-09T14:51:06.675Z,5.90
2023-05-09T14:53:49.954Z,4.70
2023-05-09T14:56:27.104Z,5.00
2023-05-09T14:59:14.678Z,5.20
2023-05-09T15:01:47.425Z,4.10
2023-05-09T15:04:22.193Z,3.20
2023-05-09T15:07:46.253Z,3.50
2023-05-09T15:14:06.855Z,6.10
2023-05-09T15:16:41.793Z,5.70
2023-05-09T15:19:26.857Z,10.80
2023-05-09T15:24:47.138Z,5.60
2023-05-09T15:27:20.497Z,7.60
2023-05-09T15:30:14.661Z,4.50
2023-05-09T15:32:59.736Z,4.90
2023-05-09T15:38:21.472Z,8.40
2023-05-09T15:41:25.135Z,8.40
2023-05-09T15:44:54.961Z,3.30
2023-05-09T15:52:06.221Z,3.40
2023-05-09T15:58:23.641Z,4.20
2023-05-09T16:01:58.895Z,7.40
2023-05-09T16:04:49.574Z,11.80
2023-05-09T16:10:31.331Z,9.00
2023-05-09T16:13:03.589Z,5.80
2023-05-09T16:15:35.830Z,4.80
2023-05-09T16:18:08.073Z,5.40
2023-05-09T16:20:39.960Z,5.00
2023-05-09T16:23:11.869Z,6.40
2023-05-09T16:25:46.339Z,4.20
2023-05-09T16:28:19.659Z,8.30
2023-05-09T16:30:52.391Z,4.70
2023-05-09T16:33:24.201Z,4.50
2023-05-09T16:35:56.949Z,3.50
2023-05-09T16:38:29.114Z,3.40
2023-05-09T16:41:00.931Z,5.60
2023-05-09T16:43:32.870Z,4.80
2023-05-09T16:46:08.032Z,3.90
2023-05-09T16:48:39.896Z,6.10
2023-05-09T16:51:12.168Z,3.80
2023-05-09T16:53:44.000Z,4.70
2023-05-09T16:56:15.760Z,4.00
2023-05-09T16:58:49.614Z,5.10
2023-05-09T17:01:22.556Z,4.30
2023-05-09T17:03:54.366Z,4.70
2023-05-09T17:06:26.592Z,5.80
2023-05-09T17:08:58.226Z,6.10
2023-05-09T17:11:30.628Z,7.00
2023-05-09T17:14:03.197Z,5.60
2023-05-09T17:16:37.960Z,6.70
2023-05-09T17:19:09.958Z,5.30
2023-05-09T17:21:42.343Z,6.40
2023-05-09T17:24:14.181Z,4.10
2023-05-09T17:26:47.311Z,5.80
2023-05-09T17:29:22.285Z,8.30
2023-05-09T17:31:54.051Z,8.00
2023-05-09T17:34:28.103Z,5.00
2023-05-09T17:37:04.139Z,5.70
2023-05-09T17:39:45.864Z,6.00
2023-05-09T17:42:19.991Z,4.80
2023-05-09T17:44:52.418Z,7.20
2023-05-09T17:47:32.297Z,3.70
2023-05-09T17:50:05.396Z,5.30
2023-05-09T17:52:37.710Z,4.00
2023-05-09T17:55:10.696Z,3.90
2023-05-09T17:57:43.557Z,5.00
2023-05-09T18:00:18.573Z,4.20
2023-05-09T18:02:51.362Z,6.60
2023-05-09T18:05:24.164Z,5.30
2023-05-09T18:07:57.206Z,6.20
2023-05-09T18:10:28.936Z,3.20
2023-05-09T18:13:01.256Z,5.30
2023-05-09T18:15:38.100Z,6.40
2023-05-09T18:18:12.874Z,6.80
2023-05-09T18:20:47.411Z,5.80
2023-05-09T18:23:19.419Z,5.80
2023-05-09T18:25:51.336Z,4.80
2023-05-09T18:28:26.169Z,5.20
2023-05-09T18:30:59.864Z,5.10
2023-05-09T18:33:32.162Z,7.10
2023-05-09T18:36:05.007Z,6.50
2023-05-09T18:38:38.750Z,6.70
2023-05-09T18:41:12.036Z,8.80
2023-05-09T18:43:47.527Z,9.80
2023-05-09T18:46:21.615Z,8.60
2023-05-09T18:48:54.702Z,6.10
2023-05-09T18:51:26.556Z,8.30
2023-05-09T18:53:58.186Z,7.80
2023-05-09T18:56:30.225Z,8.80
2023-05-09T18:59:03.070Z,8.70
2023-05-09T19:01:34.727Z,10.70
2023-05-09T19:04:07.810Z,9.90
2023-05-09T19:06:40.590Z,11.30
2023-05-09T19:09:13.973Z,11.00
2023-05-09T19:11:46.023Z,12.40
2023-05-09T19:14:18.832Z,8.00
2023-05-09T19:16:51.198Z,8.20
2023-05-09T19:19:25.048Z,9.90
2023-05-09T19:22:00.397Z,11.00
2023-05-09T19:24:36.289Z,8.70
2023-05-09T19:27:10.339Z,8.70
2023-05-09T19:29:43.111Z,6.10
2023-05-09T19:32:19.860Z,9.50
2023-05-09T19:34:59.546Z,6.10
2023-05-09T19:37:36.400Z,5.90
2023-05-09T19:40:11.846Z,6.50
2023-05-09T19:42:46.685Z,7.10
2023-05-09T19:45:22.664Z,11.10
2023-05-09T19:47:59.088Z,8.20
2023-05-09T19:50:33.262Z,10.10
2023-05-09T19:53:05.492Z,7.70
2023-05-09T19:55:38.396Z,8.50
2023-05-09T19:58:12.000Z,11.30
2023-05-09T20:00:43.951Z,7.90
2023-05-09T20:03:17.299Z,8.10
2023-05-09T20:11:35.354Z,7.40
2023-05-09T20:14:08.055Z,5.30
2023-05-09T20:16:41.139Z,5.60
2023-05-09T20:19:16.906Z,7.00
2023-05-09T20:21:51.352Z,7.50
2023-05-09T20:24:29.440Z,7.30
2023-05-09T20:27:03.782Z,8.20
2023-05-09T20:29:37.864Z,7.40
2023-05-09T20:32:12.298Z,6.80
2023-05-09T20:34:47.005Z,5.90
2023-05-09T20:39:51.931Z,5.20
2023-05-09T20:42:26.819Z,7.00
2023-05-09T20:45:05.557Z,6.00
2023-05-09T20:47:38.486Z,5.40
2023-05-09T20:50:12.801Z,7.00
2023-05-09T20:52:44.727Z,6.00
2023-05-09T20:55:18.658Z,6.80
2023-05-09T20:57:50.735Z,5.90
2023-05-09T21:00:22.865Z,6.70
2023-05-09T21:02:58.611Z,6.80
2023-05-09T21:05:32.379Z,7.30
2023-05-09T21:08:04.297Z,7.10
2023-05-09T21:10:36.602Z,8.30
2023-05-09T21:13:08.416Z,6.60
2023-05-09T21:15:40.074Z,8.20
2023-05-09T21:18:12.074Z,7.10
2023-05-09T21:20:45.370Z,7.00
2023-05-09T21:23:18.840Z,6.00
2023-05-09T21:25:50.777Z,7.10
2023-05-09T21:28:22.277Z,12.00
2023-05-09T21:30:55.513Z,8.10
2023-05-09T21:33:27.587Z,8.00
2023-05-09T21:35:59.637Z,8.70
2023-05-09T21:38:31.632Z,9.70
2023-05-09T21:41:03.510Z,8.60
2023-05-09T21:43:35.664Z,6.60
2023-05-09T21:46:08.951Z,8.20
2023-05-09T21:48:40.632Z,5.10
2023-05-09T21:51:13.129Z,7.30
2023-05-09T21:53:44.743Z,8.90
2023-05-09T21:56:17.035Z,7.10
2023-05-09T21:58:48.595Z,5.70
2023-05-09T22:01:22.220Z,7.70
2023-05-09T22:03:54.017Z,6.20
2023-05-09T22:06:25.682Z,5.20
2023-05-09T22:08:57.188Z,6.90
2023-05-09T22:11:28.709Z,5.00
2023-05-09T22:14:00.725Z,5.30
2023-05-09T22:16:33.626Z,8.00
2023-05-09T22:19:05.143Z,5.60
2023-05-09T22:21:36.647Z,6.70
2023-05-09T22:24:09.000Z,6.30
2023-05-09T22:26:40.702Z,6.10
2023-05-09T22:29:12.115Z,7.40
2023-05-09T22:31:51.473Z,7.10
2023-05-09T22:34:23.440Z,5.60
2023-05-09T22:36:55.846Z,7.40
2023-05-09T22:39:27.467Z,5.90
2023-05-09T22:41:59.081Z,6.90
2023-05-09T22:44:30.400Z,6.70
2023-05-09T22:47:01.900Z,7.90
2023-05-09T22:49:33.412Z,7.10
2023-05-09T22:52:04.995Z,4.90
2023-05-09T22:54:36.499Z,6.00
2023-05-09T22:57:08.285Z,6.20
2023-05-09T22:59:39.845Z,8.30
2023-05-09T23:02:12.622Z,6.80
2023-05-09T23:04:44.094Z,6.60
2023-05-09T23:07:16.315Z,8.80
2023-05-09T23:09:47.760Z,8.10
2023-05-09T23:12:19.203Z,6.10
2023-05-09T23:14:50.993Z,6.30
2023-05-09T23:17:23.314Z,10.10
2023-05-09T23:19:55.645Z,7.10
2023-05-09T23:22:27.901Z,9.50
2023-05-09T23:25:01.205Z,7.00
2023-05-09T23:27:33.684Z,8.60
2023-05-09T23:30:06.315Z,7.10
2023-05-09T23:32:38.681Z,10.80
2023-05-09T23:35:11.720Z,8.70
2023-05-09T23:37:43.508Z,6.50
2023-05-09T23:40:16.778Z,9.40
2023-05-09T23:42:48.481Z,8.10
2023-05-09T23:45:20.273Z,10.00
2023-05-09T23:47:52.256Z,8.40
2023-05-09T23:50:25.256Z,7.80
2023-05-09T23:52:57.347Z,8.80
2023-05-09T23:55:29.483Z,9.00
2023-05-09T23:58:01.038Z,7.90
